Time;durP1;ratioP1;P1;durP2;ratioP2;P2;SDS_P1;SDS_P2;PMS_P1;PMS_P2;Temp;Humidity;BMP_temperature;BMP_pressure;BME280_temperature;BME280_humidity;BME280_pressure;Samples;Min_cycle;Max_cycle;Signal;HPM_P1;HPM_P2
2024/01/03 00:00:34;;;;;;;20.90;11.30;;;;;;;5.18;100.00;97054.02;107751;1308;22343;-39
2024/01/03 00:02:59;;;;;;;18.20;10.40;;;;;;;5.16;100.00;97049.64;107762;1308;22236;-38
2024/01/03 00:05:30;;;;;;;18.30;11.00;;;;;;;5.11;100.00;97045.81;107750;1308;22369;-38
2024/01/03 00:07:56;;;;;;;19.40;11.20;;;;;;;5.07;100.00;97041.02;107764;1286;22458;-43
2024/01/03 00:10:41;;;;;;;19.50;11.40;;;;;;;5.09;100.00;97035.16;107762;1308;22254;-37
2024/01/03 00:13:48;;;;;;;19.80;10.80;;;;;;;5.12;100.00;97033.95;107741;1308;22222;-38
2024/01/03 00:16:19;;;;;;;16.90;10.70;;;;;;;5.14;100.00;97028.06;107138;1315;22289;-37
2024/01/03 00:18:50;;;;;;;21.40;14.20;;;;;;;5.16;100.00;97025.48;107129;1315;23020;-38
2024/01/03 00:21:24;;;;;;;18.20;11.10;;;;;;;5.16;100.00;97022.99;107151;1295;22410;-36
2024/01/03 00:23:52;;;;;;;16.30;11.10;;;;;;;5.16;100.00;97016.98;107156;1315;22285;-38
2024/01/03 00:26:18;;;;;;;16.90;11.00;;;;;;;5.18;100.00;97013.69;107157;1295;22281;-38
2024/01/03 00:28:43;;;;;;;15.30;10.90;;;;;;;5.18;100.00;97011.74;107104;1315;22350;-37
2024/01/03 00:31:09;;;;;;;14.80;10.90;;;;;;;5.18;100.00;97007.96;107143;1315;22274;-39
2024/01/03 00:33:40;;;;;;;13.20;9.80;;;;;;;5.18;100.00;97006.93;107121;1315;22617;-39
2024/01/03 00:36:07;;;;;;;20.00;11.10;;;;;;;5.16;100.00;97002.38;107147;1296;22251;-37
2024/01/03 00:38:38;;;;;;;20.00;11.20;;;;;;;5.12;100.00;97000.25;107150;1315;22287;-42
2024/01/03 00:41:03;;;;;;;14.60;9.50;;;;;;;5.12;100.00;96994.66;107129;1315;22235;-38
2024/01/03 00:43:29;;;;;;;16.70;10.20;;;;;;;5.13;100.00;96989.77;107130;1315;22275;-37
2024/01/03 00:45:54;;;;;;;14.70;9.80;;;;;;;5.14;100.00;96985.29;107130;1315;22264;-39
2024/01/03 00:48:19;;;;;;;12.90;9.50;;;;;;;5.13;100.00;96980.17;107669;1308;22262;-37
2024/01/03 00:50:45;;;;;;;15.20;9.60;;;;;;;5.11;100.00;96977.00;107718;1308;22970;-38
2024/01/03 00:53:12;;;;;;;14.60;10.40;;;;;;;5.14;100.00;96973.69;107749;1290;22242;-36
2024/01/03 00:55:39;;;;;;;14.50;9.50;;;;;;;5.11;100.00;96970.59;107744;1308;22526;-40
2024/01/03 00:58:04;;;;;;;15.30;10.40;;;;;;;5.08;100.00;96971.00;107743;1308;22248;-39
2024/01/03 01:00:30;;;;;;;14.40;9.10;;;;;;;5.10;100.00;96967.19;107737;1308;23062;-39
2024/01/03 01:02:55;;;;;;;17.40;9.60;;;;;;;5.12;100.00;96963.77;107733;1308;22419;-39
2024/01/03 01:05:21;;;;;;;15.50;9.80;;;;;;;5.12;100.00;96960.44;107758;1308;22423;-38
2024/01/03 01:07:46;;;;;;;16.40;10.70;;;;;;;5.15;100.00;96956.58;107745;1308;22307;-39
2024/01/03 01:10:11;;;;;;;15.00;9.70;;;;;;;5.17;100.00;96952.58;107720;1308;23338;-37
2024/01/03 01:12:36;;;;;;;15.70;9.60;;;;;;;5.18;100.00;96951.34;107748;1308;22232;-38
2024/01/03 01:15:02;;;;;;;15.70;9.90;;;;;;;5.16;100.00;96946.98;107768;1308;22241;-40
2024/01/03 01:17:27;;;;;;;20.20;10.50;;;;;;;5.14;100.00;96946.75;107752;1305;22265;-40
2024/01/03 01:19:52;;;;;;;14.70;9.80;;;;;;;5.16;100.00;96944.86;107749;1291;23040;-39
2024/01/03 01:22:18;;;;;;;16.20;9.80;;;;;;;5.14;100.00;96943.45;107762;1308;22353;-39
2024/01/03 01:24:43;;;;;;;15.80;10.20;;;;;;;5.14;100.00;96939.64;107749;1291;23134;-39
2024/01/03 01:27:09;;;;;;;15.90;11.00;;;;;;;5.13;100.00;96938.33;107752;1304;22410;-40
2024/01/03 01:29:34;;;;;;;16.80;10.20;;;;;;;5.15;100.00;96934.84;107743;1308;22271;-39
2024/01/03 01:32:00;;;;;;;15.60;10.70;;;;;;;5.19;100.00;96932.66;107737;1291;22414;-39
2024/01/03 01:34:25;;;;;;;15.90;11.10;;;;;;;5.23;100.00;96930.65;107745;1308;23665;-39
2024/01/03 01:36:51;;;;;;;15.70;9.90;;;;;;;5.27;100.00;96929.84;107752;1291;22213;-38
2024/01/03 01:39:16;;;;;;;15.70;11.00;;;;;;;5.30;100.00;96924.57;107721;1286;22438;-40
2024/01/03 01:41:42;;;;;;;15.30;11.00;;;;;;;5.30;100.00;96919.38;107701;1308;22475;-37
2024/01/03 01:44:07;;;;;;;14.10;9.30;;;;;;;5.29;100.00;96917.20;107754;1290;22892;-38
2024/01/03 01:46:34;;;;;;;15.80;10.80;;;;;;;5.27;100.00;96914.76;107753;1308;22416;-39
2024/01/03 01:49:00;;;;;;;14.70;9.90;;;;;;;5.26;100.00;96910.96;107739;1301;22280;-37
2024/01/03 01:51:26;;;;;;;13.90;9.80;;;;;;;5.28;100.00;96903.90;107741;1308;22979;-38
2024/01/03 01:53:52;;;;;;;16.10;10.00;;;;;;;5.31;100.00;96900.06;107727;1291;22279;-39
2024/01/03 01:56:19;;;;;;;16.90;9.90;;;;;;;5.34;100.00;96899.45;107734;1291;22260;-38
2024/01/03 01:58:45;;;;;;;13.20;9.40;;;;;;;5.34;100.00;96895.97;107766;1308;22354;-39
2024/01/03 02:01:11;;;;;;;15.20;9.20;;;;;;;5.35;100.00;96893.82;107718;1308;22260;-39
2024/01/03 02:03:37;;;;;;;14.00;9.10;;;;;;;5.32;100.00;96888.31;107740;1291;22373;-39
2024/01/03 02:06:05;;;;;;;17.40;10.00;;;;;;;5.32;100.00;96883.96;107774;1300;22229;-38
2024/01/03 02:08:31;;;;;;;13.80;9.50;;;;;;;5.33;100.00;96880.29;107722;1308;22467;-40
2024/01/03 02:10:56;;;;;;;12.30;9.40;;;;;;;5.36;100.00;96877.27;107748;1308;22482;-40
2024/01/03 02:13:21;;;;;;;13.50;9.90;;;;;;;5.39;100.00;96873.56;107706;1308;23141;-38
2024/01/03 02:15:47;;;;;;;12.70;9.40;;;;;;;5.41;100.00;96872.02;107755;1290;22425;-38
2024/01/03 02:18:12;;;;;;;12.40;8.80;;;;;;;5.40;100.00;96866.15;107738;1308;23285;-38
2024/01/03 02:20:38;;;;;;;14.40;9.20;;;;;;;5.41;100.00;96862.29;107757;1308;22476;-38
2024/01/03 02:23:03;;;;;;;14.40;9.00;;;;;;;5.42;100.00;96858.44;107750;1291;22202;-38
2024/01/03 02:25:29;;;;;;;15.70;9.00;;;;;;;5.40;100.00;96857.51;107744;1308;22271;-39
2024/01/03 02:27:54;;;;;;;12.00;8.80;;;;;;;5.41;100.00;96853.09;107749;1308;22259;-38
2024/01/03 02:30:19;;;;;;;11.40;8.30;;;;;;;5.38;100.00;96844.09;107707;1297;22486;-38
2024/01/03 02:32:44;;;;;;;12.60;9.10;;;;;;;5.32;100.00;96845.44;107745;1308;22388;-38
2024/01/03 02:35:10;;;;;;;13.10;8.90;;;;;;;5.34;100.00;96841.96;107758;1308;22502;-39
2024/01/03 02:37:35;;;;;;;11.70;8.60;;;;;;;5.38;100.00;96839.77;107718;1308;22640;-37
2024/01/03 02:40:00;;;;;;;11.30;9.20;;;;;;;5.40;100.00;96835.80;107724;1290;22353;-38
2024/01/03 02:44:03;;;;;;;13.00;8.50;;;;;;;5.47;100.00;96831.11;107435;1304;559219;-36
2024/01/03 02:46:28;;;;;;;10.80;8.10;;;;;;;5.45;100.00;96829.15;107755;1308;22446;-38
2024/01/03 02:48:53;;;;;;;13.40;8.80;;;;;;;5.45;100.00;96823.77;107780;1285;22984;-37
2024/01/03 02:51:19;;;;;;;12.40;8.40;;;;;;;5.49;100.00;96820.57;107763;1291;22347;-37
2024/01/03 02:53:45;;;;;;;9.50;7.30;;;;;;;5.51;100.00;96816.36;107792;1288;22247;-37
2024/01/03 02:56:10;;;;;;;10.40;7.70;;;;;;;5.49;100.00;96812.51;107645;1291;158226;-37
2024/01/03 02:58:37;;;;;;;13.90;8.50;;;;;;;5.49;100.00;96811.63;108009;1284;22914;-37
2024/01/03 03:01:04;;;;;;;11.30;7.80;;;;;;;5.50;100.00;96807.92;108017;1306;22255;-38
2024/01/03 03:03:29;;;;;;;13.70;8.30;;;;;;;5.53;100.00;96804.80;108023;1306;22223;-38
2024/01/03 03:05:55;;;;;;;9.50;7.90;;;;;;;5.54;100.00;96802.45;108012;1285;22465;-38
2024/01/03 03:08:20;;;;;;;9.80;7.70;;;;;;;5.55;100.00;96802.02;108026;1288;22239;-37
2024/01/03 03:10:45;;;;;;;12.20;8.10;;;;;;;5.58;100.00;96795.35;108010;1306;23031;-36
2024/01/03 03:13:11;;;;;;;11.00;7.20;;;;;;;5.59;100.00;96788.87;108016;1287;22451;-37
2024/01/03 03:15:36;;;;;;;9.00;7.20;;;;;;;5.61;100.00;96787.67;108023;1306;23225;-36
2024/01/03 03:18:01;;;;;;;9.30;7.40;;;;;;;5.62;100.00;96784.47;108008;1306;22257;-37
2024/01/03 03:20:26;;;;;;;11.00;7.10;;;;;;;5.63;100.00;96780.23;108010;1287;22231;-38
2024/01/03 03:22:51;;;;;;;10.30;6.70;;;;;;;5.61;100.00;96775.16;108009;1287;22225;-37
2024/01/03 03:25:17;;;;;;;9.30;6.90;;;;;;;5.65;100.00;96774.70;108020;1288;23269;-39
2024/01/03 03:27:42;;;;;;;9.10;6.80;;;;;;;5.68;100.00;96775.30;108006;1286;22344;-37
2024/01/03 03:30:08;;;;;;;9.50;7.00;;;;;;;5.66;100.00;96771.62;108016;1306;22295;-37
2024/01/03 03:32:33;;;;;;;10.70;5.80;;;;;;;5.64;100.00;96769.16;108020;1306;22281;-38
2024/01/03 03:34:58;;;;;;;9.90;8.70;;;;;;;5.63;100.00;96769.42;108029;1306;22278;-38
2024/01/03 03:37:24;;;;;;;8.20;6.20;;;;;;;5.64;100.00;96766.96;108018;1284;22410;-39
2024/01/03 03:39:50;;;;;;;9.40;6.40;;;;;;;5.66;100.00;96765.03;108008;1288;23046;-38
2024/01/03 03:42:18;;;;;;;7.50;5.80;;;;;;;5.70;100.00;96762.99;108037;1294;22409;-37
2024/01/03 03:44:43;;;;;;;8.70;5.70;;;;;;;5.73;100.00;96760.84;107745;1286;22567;-37
2024/01/03 03:47:09;;;;;;;6.30;5.40;;;;;;;5.75;100.00;96758.42;107199;1305;22279;-36
2024/01/03 03:49:34;;;;;;;7.00;5.30;;;;;;;5.73;100.00;96753.48;108112;1288;22406;-38
2024/01/03 03:51:59;;;;;;;8.00;5.50;;;;;;;5.72;100.00;96753.12;108088;1305;22292;-37
2024/01/03 03:54:24;;;;;;;7.90;5.40;;;;;;;5.70;100.00;96746.64;108106;1285;23774;-36
2024/01/03 03:56:50;;;;;;;5.60;4.70;;;;;;;5.67;100.00;96746.33;108098;1287;22353;-37
2024/01/03 03:59:15;;;;;;;6.70;4.80;;;;;;;5.70;100.00;96742.80;108076;1288;23185;-37
2024/01/03 04:01:47;;;;;;;6.40;4.30;;;;;;;5.73;100.00;96739.63;108091;1305;22334;-38
2024/01/03 04:04:12;;;;;;;5.70;4.50;;;;;;;5.73;100.00;96735.42;108094;1305;22321;-37
2024/01/03 04:06:42;;;;;;;5.00;4.50;;;;;;;5.75;100.00;96734.77;108109;1283;22233;-39
2024/01/03 04:09:10;;;;;;;8.10;4.30;;;;;;;5.76;100.00;96735.59;108121;1305;22231;-38
2024/01/03 04:11:39;;;;;;;6.70;4.10;;;;;;;5.76;100.00;96733.11;108095;1305;22426;-37
2024/01/03 04:14:04;;;;;;;5.50;4.40;;;;;;;5.75;100.00;96734.27;108081;1305;22433;-38
2024/01/03 04:16:30;;;;;;;7.10;4.70;;;;;;;5.75;100.00;96727.66;108120;1282;22434;-38
2024/01/03 04:18:55;;;;;;;5.90;4.20;;;;;;;5.76;100.00;96719.23;108115;1294;22425;-38
2024/01/03 04:21:20;;;;;;;7.30;4.30;;;;;;;5.78;100.00;96718.25;108087;1305;23227;-39
2024/01/03 04:23:45;;;;;;;4.90;3.40;;;;;;;5.78;100.00;96715.76;108097;1288;23046;-39
2024/01/03 04:26:11;;;;;;;5.00;4.00;;;;;;;5.79;100.00;96714.17;108102;1305;22254;-37
2024/01/03 04:28:36;;;;;;;4.20;3.70;;;;;;;5.82;100.00;96709.79;108097;1283;22181;-39
2024/01/03 04:31:01;;;;;;;5.10;3.90;;;;;;;5.85;100.00;96705.53;108093;1288;23874;-37
2024/01/03 04:33:26;;;;;;;6.00;3.70;;;;;;;5.85;100.00;96705.39;108104;1285;22423;-37
2024/01/03 04:35:53;;;;;;;4.70;3.70;;;;;;;5.87;100.00;96708.71;108092;1305;23159;-38
2024/01/03 04:38:18;;;;;;;4.10;3.40;;;;;;;5.86;100.00;96705.27;108116;1305;22915;-37
2024/01/03 04:40:43;;;;;;;5.80;3.50;;;;;;;5.88;100.00;96705.85;108092;1287;22192;-37
2024/01/03 04:43:09;;;;;;;4.80;3.30;;;;;;;5.88;100.00;96700.63;108092;1305;22229;-38
2024/01/03 04:45:35;;;;;;;3.90;3.20;;;;;;;5.89;100.00;96701.19;108069;1293;22219;-38
2024/01/03 04:48:01;;;;;;;6.30;3.60;;;;;;;5.89;100.00;96703.25;108083;1305;22318;-37
2024/01/03 04:50:26;;;;;;;5.60;3.30;;;;;;;5.91;100.00;96701.76;108073;1288;22961;-38
2024/01/03 04:52:51;;;;;;;3.30;3.00;;;;;;;5.93;100.00;96702.30;108094;1288;22347;-38
2024/01/03 04:55:17;;;;;;;4.00;3.00;;;;;;;5.90;100.00;96701.78;108097;1305;22171;-38
2024/01/03 04:57:42;;;;;;;4.70;3.30;;;;;;;5.88;100.00;96699.39;108061;1304;22498;-38
2024/01/03 05:00:08;;;;;;;3.50;3.00;;;;;;;5.85;100.00;96701.54;108095;1288;22250;-37
2024/01/03 05:02:36;;;;;;;5.70;3.50;;;;;;;5.85;100.00;96699.83;108097;1302;23097;-38
2024/01/03 05:05:02;;;;;;;5.90;3.70;;;;;;;5.89;100.00;96697.58;108113;1288;22866;-38
2024/01/03 05:07:28;;;;;;;4.40;3.80;;;;;;;5.92;100.00;96697.14;108084;1291;23045;-38
2024/01/03 05:09:53;;;;;;;7.10;3.90;;;;;;;5.93;100.00;96695.98;108097;1287;22890;-38
2024/01/03 05:12:18;;;;;;;5.60;3.90;;;;;;;5.95;100.00;96689.13;108077;1287;23108;-37
2024/01/03 05:14:44;;;;;;;6.40;4.20;;;;;;;6.01;100.00;96687.98;108089;1287;22535;-37
2024/01/03 05:17:09;;;;;;;5.20;3.90;;;;;;;6.04;100.00;96684.79;108080;1287;22327;-38
2024/01/03 05:19:34;;;;;;;4.70;3.90;;;;;;;6.04;100.00;96681.84;108109;1288;22191;-37
2024/01/03 05:21:59;;;;;;;5.80;4.10;;;;;;;6.08;100.00;96682.91;108093;1288;22222;-37
2024/01/03 05:24:26;;;;;;;6.10;4.00;;;;;;;6.05;100.00;96678.91;108076;1288;22359;-37
2024/01/03 05:26:51;;;;;;;5.30;4.30;;;;;;;6.03;100.00;96682.77;108087;1286;22256;-37
2024/01/03 05:29:16;;;;;;;8.20;5.00;;;;;;;6.05;100.00;96684.05;108089;1288;22312;-37
2024/01/03 05:31:42;;;;;;;9.10;4.90;;;;;;;6.06;100.00;96685.13;108102;1305;22406;-41
2024/01/03 05:34:08;;;;;;;5.00;3.60;;;;;;;6.07;100.00;96682.09;108102;1286;23790;-38
2024/01/03 05:36:34;;;;;;;7.20;3.80;;;;;;;6.09;100.00;96684.02;108092;1286;22443;-38
2024/01/03 05:38:59;;;;;;;4.40;3.90;;;;;;;6.09;100.00;96677.77;108106;1283;22290;-39
2024/01/03 05:41:24;;;;;;;5.60;3.90;;;;;;;6.08;100.00;96675.25;108091;1285;22262;-37
2024/01/03 05:43:50;;;;;;;5.20;3.40;;;;;;;6.09;100.00;96678.83;108085;1305;22126;-36
2024/01/03 05:46:15;;;;;;;3.90;3.10;;;;;;;6.13;100.00;96673.95;108075;1304;22242;-38
2024/01/03 05:48:42;;;;;;;4.20;3.30;;;;;;;6.14;100.00;96674.40;108114;1286;22385;-37
2024/01/03 05:51:08;;;;;;;7.50;3.90;;;;;;;6.16;100.00;96678.40;108093;1283;22972;-37
2024/01/03 05:53:33;;;;;;;3.60;3.30;;;;;;;6.21;100.00;96678.95;108098;1296;22500;-37
2024/01/03 05:55:58;;;;;;;3.50;3.00;;;;;;;6.25;100.00;96674.41;108075;1288;23341;-38
2024/01/03 05:58:23;;;;;;;3.80;3.30;;;;;;;6.28;100.00;96678.73;108104;1288;22272;-38
2024/01/03 06:00:49;;;;;;;5.70;3.70;;;;;;;6.29;100.00;96676.16;108093;1288;22297;-37
2024/01/03 06:03:14;;;;;;;8.30;3.70;;;;;;;6.30;100.00;96683.41;108086;1291;22214;-37
2024/01/03 06:05:39;;;;;;;4.60;4.10;;;;;;;6.33;100.00;96682.79;108101;1288;23275;-38
2024/01/03 06:08:05;;;;;;;4.70;3.80;;;;;;;6.35;100.00;96680.38;108078;1305;22240;-39
2024/01/03 06:10:30;;;;;;;5.20;3.90;;;;;;;6.38;100.00;96678.45;108056;1305;22419;-37
2024/01/03 06:12:55;;;;;;;5.50;4.50;;;;;;;6.38;100.00;96673.45;108087;1305;22293;-39
2024/01/03 06:15:20;;;;;;;3.50;3.20;;;;;;;6.40;100.00;96677.10;108118;1305;22916;-38
2024/01/03 06:17:46;;;;;;;8.60;4.60;;;;;;;6.44;100.00;96676.39;108086;1285;22489;-37
2024/01/03 06:20:11;;;;;;;3.30;3.00;;;;;;;6.46;100.00;96672.42;108062;1305;22382;-38
2024/01/03 06:22:36;;;;;;;4.00;3.70;;;;;;;6.42;100.00;96667.64;108094;1301;23225;-37
2024/01/03 06:25:02;;;;;;;6.10;2.70;;;;;;;6.40;100.00;96672.91;108078;1305;22534;-39
2024/01/03 06:27:27;;;;;;;3.40;3.00;;;;;;;6.42;100.00;96671.54;108090;1305;22243;-37
2024/01/03 06:29:52;;;;;;;4.20;2.60;;;;;;;6.45;100.00;96669.39;108075;1288;23155;-38
2024/01/03 06:32:17;;;;;;;3.90;2.70;;;;;;;6.49;100.00;96674.77;108082;1285;22413;-38
2024/01/03 06:34:43;;;;;;;2.90;2.60;;;;;;;6.49;100.00;96679.30;108094;1305;22936;-38
2024/01/03 06:37:08;;;;;;;3.60;2.70;;;;;;;6.49;100.00;96673.71;108110;1291;22226;-37
2024/01/03 06:39:33;;;;;;;2.90;2.70;;;;;;;6.50;100.00;96672.75;108086;1288;23215;-38
2024/01/03 06:41:59;;;;;;;4.10;2.70;;;;;;;6.51;100.00;96668.52;108095;1285;22330;-37
2024/01/03 06:44:24;;;;;;;2.70;2.40;;;;;;;6.52;100.00;96660.73;108067;1305;22223;-39
2024/01/03 06:46:51;;;;;;;2.70;2.10;;;;;;;6.51;100.00;96671.98;108075;1288;22258;-39
2024/01/03 06:49:16;;;;;;;2.90;2.20;;;;;;;6.48;100.00;96674.11;108081;1289;22223;-38
2024/01/03 06:51:41;;;;;;;3.80;2.60;;;;;;;6.48;100.00;96675.19;108099;1305;22920;-37
2024/01/03 06:54:07;;;;;;;3.00;2.30;;;;;;;6.51;100.00;96674.73;108114;1297;22331;-39
2024/01/03 06:56:32;;;;;;;3.30;2.50;;;;;;;6.54;100.00;96677.80;108068;1305;22981;-38
2024/01/03 06:58:58;;;;;;;3.20;2.80;;;;;;;6.52;100.00;96675.39;108102;1288;22319;-38
2024/01/03 07:01:23;;;;;;;3.30;2.30;;;;;;;6.55;100.00;96675.13;108108;1300;23159;-39
2024/01/03 07:03:48;;;;;;;3.10;2.30;;;;;;;6.61;100.00;96678.20;108110;1303;22201;-40
2024/01/03 07:06:14;;;;;;;2.60;2.10;;;;;;;6.65;100.00;96679.93;108089;1305;22563;-38
2024/01/03 07:08:39;;;;;;;3.70;2.20;;;;;;;6.66;100.00;96686.08;108104;1285;22421;-38
2024/01/03 07:11:05;;;;;;;2.70;2.10;;;;;;;6.69;100.00;96689.17;108098;1289;22433;-39
2024/01/03 07:13:32;;;;;;;3.40;1.90;;;;;;;6.71;100.00;96690.05;108069;1289;22445;-39
2024/01/03 07:15:57;;;;;;;3.90;2.20;;;;;;;6.72;100.00;96687.66;108078;1305;23209;-38
2024/01/03 07:18:22;;;;;;;2.60;2.40;;;;;;;6.74;100.00;96682.83;108082;1283;23202;-38
2024/01/03 07:20:48;;;;;;;3.50;2.30;;;;;;;6.76;100.00;96684.76;108108;1295;22237;-38
2024/01/03 07:23:13;;;;;;;4.10;2.90;;;;;;;6.76;100.00;96687.41;108057;1282;22216;-38
2024/01/03 07:25:38;;;;;;;4.10;3.20;;;;;;;6.75;100.00;96693.52;108058;1305;22219;-39
2024/01/03 07:28:04;;;;;;;4.80;3.20;;;;;;;6.80;100.00;96693.84;108089;1284;22234;-38
2024/01/03 07:30:29;;;;;;;4.20;3.20;;;;;;;6.83;100.00;96693.24;108093;1286;22442;-38
2024/01/03 07:32:56;;;;;;;3.80;2.70;;;;;;;6.86;100.00;96690.21;108082;1291;22330;-37
2024/01/03 07:35:23;;;;;;;8.80;2.90;;;;;;;6.90;100.00;96689.58;108086;1296;22323;-39
2024/01/03 07:37:48;;;;;;;3.10;2.70;;;;;;;6.94;100.00;96693.42;108113;1291;23029;-39
2024/01/03 07:40:13;;;;;;;4.10;2.80;;;;;;;6.98;100.00;96696.36;108070;1305;22548;-38
2024/01/03 07:42:39;;;;;;;4.40;3.20;;;;;;;6.96;100.00;96694.28;108095;1295;22474;-38
2024/01/03 07:45:04;;;;;;;6.20;4.00;;;;;;;6.96;100.00;96696.59;108059;1283;22303;-39
2024/01/03 07:47:30;;;;;;;5.40;3.50;;;;;;;7.00;100.00;96702.86;108094;1298;22309;-38
2024/01/03 07:49:55;;;;;;;4.40;2.90;;;;;;;7.05;100.00;96703.98;108075;1296;22269;-38
2024/01/03 07:52:20;;;;;;;4.60;2.80;;;;;;;7.10;100.00;96703.41;108062;1296;22236;-38
2024/01/03 07:54:45;;;;;;;4.20;3.10;;;;;;;7.13;100.00;96707.67;108079;1300;22367;-38
2024/01/03 07:57:11;;;;;;;3.10;2.80;;;;;;;7.15;100.00;96711.58;108092;1305;23083;-38
2024/01/03 07:59:40;;;;;;;3.40;3.00;;;;;;;7.14;100.00;96709.55;108098;1305;22472;-39
2024/01/03 08:02:05;;;;;;;6.20;2.80;;;;;;;7.12;100.00;96712.82;108078;1291;22428;-38
2024/01/03 08:04:31;;;;;;;4.10;2.90;;;;;;;7.17;100.00;96713.66;108091;1305;22428;-39
2024/01/03 08:06:56;;;;;;;3.70;2.30;;;;;;;7.13;100.00;96718.02;108079;1286;22264;-38
2024/01/03 08:09:21;;;;;;;5.70;2.50;;;;;;;7.17;100.00;96709.98;108086;1286;23161;-38
2024/01/03 08:11:47;;;;;;;2.70;2.20;;;;;;;7.21;100.00;96712.79;108069;1286;22479;-39
2024/01/03 08:14:14;;;;;;;6.50;2.90;;;;;;;7.20;100.00;96710.77;108057;1305;22264;-38
2024/01/03 08:16:39;;;;;;;2.90;2.30;;;;;;;7.23;100.00;96711.38;108085;1287;22439;-39
2024/01/03 08:19:04;;;;;;;4.80;2.70;;;;;;;7.28;100.00;96715.02;108069;1282;22860;-38
2024/01/03 08:21:30;;;;;;;5.70;2.60;;;;;;;7.33;100.00;96715.29;108065;1291;22415;-39
2024/01/03 08:23:55;;;;;;;4.80;2.70;;;;;;;7.38;100.00;96714.55;108072;1289;22191;-43
2024/01/03 08:26:21;;;;;;;3.10;2.40;;;;;;;7.39;100.00;96719.67;108082;1298;22419;-37
2024/01/03 08:28:46;;;;;;;3.40;2.30;;;;;;;7.42;100.00;96719.11;108060;1305;22240;-38
2024/01/03 08:31:16;;;;;;;2.60;2.20;;;;;;;7.45;100.00;96717.96;108087;1305;22480;-38
2024/01/03 08:33:42;;;;;;;3.50;2.40;;;;;;;7.48;100.00;96721.90;108118;1286;22223;-38
2024/01/03 08:36:11;;;;;;;5.10;2.30;;;;;;;7.51;100.00;96722.66;108008;1282;22904;-38
2024/01/03 08:38:36;;;;;;;3.10;2.10;;;;;;;7.55;100.00;96724.95;108008;1288;23030;-38
2024/01/03 08:41:01;;;;;;;2.50;1.80;;;;;;;7.58;100.00;96727.66;107970;1286;22948;-39
2024/01/03 08:43:26;;;;;;;5.10;2.00;;;;;;;7.60;100.00;96727.48;107954;1306;22838;-38
2024/01/03 08:45:52;;;;;;;4.00;1.90;;;;;;;7.63;100.00;96732.64;108010;1306;23015;-37
2024/01/03 08:48:18;;;;;;;6.50;2.40;;;;;;;7.67;100.00;96735.28;108006;1283;22233;-37
2024/01/03 08:50:43;;;;;;;2.50;1.90;;;;;;;7.71;100.00;96738.13;107991;1298;23043;-38
2024/01/03 08:53:08;;;;;;;5.30;1.90;;;;;;;7.75;100.00;96732.75;107979;1306;23206;-39
2024/01/03 08:55:34;;;;;;;2.80;1.70;;;;;;;7.77;100.00;96739.88;107959;1298;22492;-37
2024/01/03 08:57:59;;;;;;;5.10;1.90;;;;;;;7.79;100.00;96735.64;107996;1283;22539;-38
2024/01/03 09:00:24;;;;;;;4.20;2.00;;;;;;;7.84;100.00;96730.92;107978;1306;23367;-38
2024/01/03 09:02:50;;;;;;;2.70;2.10;;;;;;;7.86;100.00;96736.12;107990;1287;22420;-39
2024/01/03 09:05:16;;;;;;;3.70;1.70;;;;;;;7.90;100.00;96739.16;107962;1301;22979;-38
2024/01/03 09:07:43;;;;;;;3.20;2.00;;;;;;;7.97;100.00;96744.76;107963;1288;22547;-39
2024/01/03 09:10:09;;;;;;;3.10;2.40;;;;;;;8.04;100.00;96747.33;107985;1306;22967;-38
2024/01/03 09:12:34;;;;;;;4.80;2.00;;;;;;;8.12;100.00;96747.19;107985;1306;22256;-39
2024/01/03 09:14:59;;;;;;;3.60;2.10;;;;;;;8.15;100.00;96744.67;107956;1306;22233;-39
2024/01/03 09:17:25;;;;;;;2.20;1.70;;;;;;;8.18;100.00;96752.61;107951;1287;22426;-38
2024/01/03 09:19:50;;;;;;;2.90;2.10;;;;;;;8.20;100.00;96751.00;107949;1288;22213;-38
2024/01/03 09:22:16;;;;;;;3.90;2.20;;;;;;;8.25;100.00;96755.28;107936;1306;22423;-38
2024/01/03 09:24:41;;;;;;;2.80;1.80;;;;;;;8.34;100.00;96756.30;107956;1288;22301;-38
2024/01/03 09:27:06;;;;;;;2.60;1.70;;;;;;;8.39;100.00;96752.36;107961;1287;23350;-38
2024/01/03 09:29:32;;;;;;;3.00;2.20;;;;;;;8.44;100.00;96758.22;107950;1306;22996;-39
2024/01/03 09:31:58;;;;;;;4.00;1.90;;;;;;;8.49;100.00;96758.67;107922;1306;23152;-38
2024/01/03 09:34:24;;;;;;;3.80;1.90;;;;;;;8.53;100.00;96763.39;107975;1283;22420;-39
2024/01/03 09:36:49;;;;;;;3.30;2.00;;;;;;;8.54;100.00;96764.56;108027;1287;23247;-39
2024/01/03 09:39:16;;;;;;;2.70;1.90;;;;;;;8.55;100.00;96763.96;108043;1296;22328;-39
2024/01/03 09:41:42;;;;;;;4.10;2.00;;;;;;;8.52;100.00;96762.98;108082;1305;23333;-36
2024/01/03 09:44:08;;;;;;;3.60;2.10;;;;;;;8.51;100.00;96772.13;108057;1297;23050;-37
2024/01/03 09:46:34;;;;;;;3.90;2.20;;;;;;;8.52;100.00;96771.55;108056;1305;22252;-37
2024/01/03 09:48:59;;;;;;;3.10;2.00;;;;;;;8.53;100.00;96776.66;108065;1286;22291;-39
